createdAt,value
2019-03-16T00:00:31.378Z,87.10
2019-03-16T00:03:00.005Z,87.20
2019-03-16T00:05:28.946Z,86.50
2019-03-16T00:07:57.684Z,86.90
2019-03-16T00:10:26.336Z,87.60
2019-03-16T00:12:55.015Z,85.90
2019-03-16T00:17:52.400Z,87.30
2019-03-16T00:20:21.192Z,86.40
2019-03-16T00:22:49.860Z,86.60
2019-03-16T00:25:18.621Z,86.70
2019-03-16T00:27:47.291Z,85.20
2019-03-16T00:30:15.944Z,85.40
2019-03-16T00:32:44.693Z,85.00
2019-03-16T00:35:13.406Z,83.60
2019-03-16T00:40:11.429Z,84.40
2019-03-16T00:42:40.104Z,85.20
2019-03-16T00:45:09.351Z,84.90
2019-03-16T00:47:38.212Z,85.20
2019-03-16T00:50:07.489Z,86.10
2019-03-16T00:52:36.153Z,86.90
2019-03-16T00:55:05.141Z,86.00
2019-03-16T00:57:33.810Z,84.90
2019-03-16T01:02:32.813Z,84.80
2019-03-16T01:05:01.497Z,85.90
2019-03-16T01:07:30.233Z,84.80
2019-03-16T01:09:58.877Z,86.20
2019-03-16T01:12:27.581Z,85.20
2019-03-16T01:14:56.239Z,87.10
2019-03-16T01:17:24.895Z,85.20
2019-03-16T01:19:53.525Z,84.30
2019-03-16T01:24:50.731Z,85.90
2019-03-16T01:27:19.360Z,85.10
2019-03-16T01:29:47.994Z,85.30
2019-03-16T01:32:16.750Z,86.10
2019-03-16T01:34:45.460Z,84.20
2019-03-16T01:37:14.108Z,85.70
2019-03-16T01:39:42.962Z,85.20
2019-03-16T01:44:40.154Z,86.00
2019-03-16T01:47:08.863Z,87.10
2019-03-16T01:49:37.499Z,86.30
2019-03-16T01:52:06.170Z,85.70
2019-03-16T01:54:34.897Z,85.20
2019-03-16T01:57:04.625Z,84.70
2019-03-16T01:59:33.282Z,84.90
2019-03-16T02:02:02.259Z,82.60
2019-03-16T02:06:59.551Z,82.10
2019-03-16T02:09:28.186Z,83.00
2019-03-16T02:11:56.835Z,82.60
2019-03-16T02:14:25.483Z,82.00
2019-03-16T02:16:54.110Z,82.80
2019-03-16T02:19:22.786Z,83.00
2019-03-16T02:21:51.538Z,82.90
2019-03-16T02:24:20.340Z,82.50
2019-03-16T02:29:17.245Z,82.70
2019-03-16T02:31:46.001Z,82.70
2019-03-16T02:34:14.780Z,83.10
2019-03-16T02:36:50.598Z,83.20
2019-03-16T02:39:19.313Z,83.40
2019-03-16T02:41:48.291Z,83.70
2019-03-16T02:44:16.934Z,83.00
2019-03-16T02:46:45.605Z,81.80
2019-03-16T02:51:42.586Z,81.90
2019-03-16T02:54:11.234Z,81.70
2019-03-16T02:56:39.874Z,81.30
2019-03-16T02:59:08.520Z,81.20
2019-03-16T03:01:37.178Z,80.70
2019-03-16T03:04:05.818Z,80.10
2019-03-16T03:06:34.654Z,80.10
2019-03-16T03:09:04.185Z,85.00
2019-03-16T03:14:01.274Z,78.80
2019-03-16T03:16:29.935Z,79.80
2019-03-16T03:18:58.556Z,77.90
2019-03-16T03:21:27.203Z,78.40
2019-03-16T03:23:56.287Z,78.60
2019-03-16T03:26:24.982Z,78.50
2019-03-16T03:28:53.602Z,78.30
2019-03-16T03:31:22.303Z,77.60
2019-03-16T03:36:20.973Z,77.70
2019-03-16T03:38:49.626Z,78.30
2019-03-16T03:41:18.337Z,78.40
2019-03-16T03:43:47.034Z,78.20
2019-03-16T03:46:15.703Z,78.00
2019-03-16T03:48:44.360Z,78.00
2019-03-16T03:51:12.993Z,76.80
2019-03-16T03:58:38.915Z,77.60
2019-03-16T04:01:07.557Z,78.00
2019-03-16T04:03:36.312Z,78.00
2019-03-16T04:06:04.969Z,77.10
2019-03-16T04:08:33.637Z,76.60
2019-03-16T04:11:02.437Z,77.30
2019-03-16T04:13:31.360Z,76.70
2019-03-16T04:18:28.297Z,76.10
2019-03-16T04:20:56.955Z,77.60
2019-03-16T04:23:25.690Z,76.50
2019-03-16T04:25:54.509Z,77.10
2019-03-16T04:28:23.321Z,76.80
2019-03-16T04:30:51.985Z,76.40
2019-03-16T04:33:20.621Z,76.10
2019-03-16T04:35:49.349Z,75.20
2019-03-16T04:40:46.293Z,74.60
2019-03-16T04:43:14.960Z,76.00
2019-03-16T04:45:43.665Z,76.70
2019-03-16T04:48:12.341Z,76.20
2019-03-16T04:50:40.989Z,75.50
2019-03-16T04:53:09.761Z,75.30
2019-03-16T04:55:38.539Z,75.60
2019-03-16T04:58:07.271Z,78.60
2019-03-16T05:03:04.253Z,75.00
2019-03-16T05:05:32.905Z,74.50
2019-03-16T05:08:01.603Z,74.20
2019-03-16T05:10:30.305Z,73.80
2019-03-16T05:12:59.252Z,73.60
2019-03-16T05:15:27.899Z,73.60
2019-03-16T05:17:56.552Z,71.90
2019-03-16T05:20:25.185Z,77.70
2019-03-16T05:25:22.207Z,71.70
2019-03-16T05:27:50.859Z,71.40
2019-03-16T05:30:19.518Z,71.30
2019-03-16T05:32:48.166Z,71.40
2019-03-16T05:35:16.919Z,71.20
2019-03-16T05:37:45.643Z,71.30
2019-03-16T05:40:14.320Z,69.90
2019-03-16T05:45:11.299Z,70.00
2019-03-16T05:47:39.943Z,68.10
2019-03-16T05:50:08.887Z,69.00
2019-03-16T05:52:37.525Z,70.30
2019-03-16T05:55:06.188Z,69.80
2019-03-16T05:57:34.820Z,69.20
2019-03-16T06:00:04.045Z,68.60
2019-03-16T06:02:32.699Z,67.60
2019-03-16T06:07:31.899Z,68.20
2019-03-16T06:10:01.181Z,68.60
2019-03-16T06:12:29.837Z,68.40
2019-03-16T06:14:58.473Z,67.70
2019-03-16T06:17:27.201Z,67.60
2019-03-16T06:19:55.995Z,68.40
2019-03-16T06:22:24.950Z,68.80
2019-03-16T06:24:53.686Z,67.60
2019-03-16T06:29:51.096Z,67.20
2019-03-16T06:32:19.832Z,68.00
2019-03-16T06:34:48.826Z,67.70
2019-03-16T06:37:17.751Z,65.80
2019-03-16T06:39:46.705Z,66.50
2019-03-16T06:42:15.550Z,67.90
2019-03-16T06:44:44.290Z,67.80
2019-03-16T06:47:13.097Z,66.80
2019-03-16T06:52:10.208Z,65.20
2019-03-16T06:54:38.960Z,66.80
2019-03-16T06:57:07.900Z,67.30
2019-03-16T06:59:36.813Z,65.20
2019-03-16T07:02:05.636Z,66.00
2019-03-16T07:04:34.525Z,65.60
2019-03-16T07:07:03.244Z,65.70
2019-03-16T07:09:31.893Z,64.40
2019-03-16T07:14:28.789Z,63.50
2019-03-16T07:17:02.266Z,64.30
2019-03-16T07:19:27.910Z,64.00
2019-03-16T07:21:56.573Z,64.60
2019-03-16T07:24:25.516Z,63.80
2019-03-16T07:26:54.175Z,63.80
2019-03-16T07:29:23.187Z,62.60
2019-03-16T07:34:20.091Z,63.00
2019-03-16T07:36:48.758Z,63.80
2019-03-16T07:39:17.655Z,62.00
2019-03-16T07:41:46.300Z,63.00
2019-03-16T07:44:14.948Z,62.40
2019-03-16T07:46:43.635Z,61.30
2019-03-16T07:49:12.304Z,62.60
2019-03-16T07:51:40.963Z,59.50
2019-03-16T07:56:38.335Z,60.30
2019-03-16T07:59:06.977Z,61.70
2019-03-16T08:01:35.950Z,61.10
2019-03-16T08:04:04.669Z,59.90
2019-03-16T08:06:33.638Z,60.70
2019-03-16T08:09:02.376Z,59.50
2019-03-16T08:11:31.139Z,59.40
2019-03-16T08:13:59.786Z,59.10
2019-03-16T08:18:56.962Z,58.70
2019-03-16T08:21:25.859Z,59.10
2019-03-16T08:23:54.551Z,59.50
2019-03-16T08:26:23.309Z,58.70
2019-03-16T08:28:51.909Z,59.50
2019-03-16T08:31:20.569Z,59.40
2019-03-16T08:33:49.293Z,59.50
2019-03-16T08:36:17.990Z,57.10
2019-03-16T08:41:15.471Z,56.20
2019-03-16T08:43:44.147Z,56.50
2019-03-16T08:46:12.846Z,55.70
2019-03-16T08:48:41.479Z,55.50
2019-03-16T08:51:10.182Z,55.10
2019-03-16T08:53:38.860Z,55.00
2019-03-16T08:56:07.484Z,54.40
2019-03-16T08:58:36.125Z,55.40
2019-03-16T09:03:43.131Z,54.40
2019-03-16T09:06:03.839Z,54.60
2019-03-16T09:08:32.502Z,54.90
2019-03-16T09:11:02.673Z,55.10
2019-03-16T09:13:31.342Z,54.80
2019-03-16T09:16:00.028Z,55.10
2019-03-16T09:18:28.720Z,54.70
2019-03-16T09:20:57.473Z,54.30
2019-03-16T09:25:54.706Z,53.70
2019-03-16T09:28:23.460Z,54.90
2019-03-16T09:30:52.124Z,54.70
2019-03-16T09:33:21.235Z,53.90
2019-03-16T09:35:49.965Z,53.40
2019-03-16T09:38:18.629Z,52.50
2019-03-16T09:40:47.278Z,52.40
2019-03-16T09:45:44.368Z,51.10
2019-03-16T09:48:13.037Z,52.80
2019-03-16T09:50:41.695Z,52.20
2019-03-16T09:53:10.372Z,52.80
2019-03-16T09:55:39.088Z,51.60
2019-03-16T09:58:07.748Z,51.30
2019-03-16T10:00:36.392Z,50.40
2019-03-16T10:03:05.334Z,48.90
2019-03-16T10:05:33.981Z,49.20
2019-03-16T10:08:02.644Z,49.80
2019-03-16T10:10:31.300Z,48.60
2019-03-16T10:13:01.083Z,48.50
2019-03-16T10:15:29.801Z,48.40
2019-03-16T10:17:58.456Z,48.80
2019-03-16T10:20:27.160Z,49.50
2019-03-16T10:22:55.801Z,50.40
2019-03-16T10:25:25.541Z,48.50
2019-03-16T10:30:22.624Z,48.40
2019-03-16T10:32:51.310Z,49.60
2019-03-16T10:35:22.210Z,48.20
2019-03-16T10:37:51.885Z,49.80
2019-03-16T10:40:21.581Z,49.60
2019-03-16T10:42:51.890Z,47.30
2019-03-16T10:45:20.678Z,47.50
2019-03-16T10:47:49.388Z,49.80
2019-03-16T10:52:46.376Z,49.40
2019-03-16T10:55:15.123Z,49.70
2019-03-16T10:57:43.828Z,49.60
2019-03-16T11:00:12.480Z,50.30
2019-03-16T11:02:41.182Z,49.20
2019-03-16T11:05:10.129Z,48.60
2019-03-16T11:07:38.847Z,47.70
2019-03-16T11:10:07.619Z,49.00
2019-03-16T11:15:06.041Z,48.50
2019-03-16T11:17:34.739Z,48.00
2019-03-16T11:20:03.495Z,47.60
2019-03-16T11:22:32.475Z,48.30
2019-03-16T11:25:01.114Z,48.70
2019-03-16T11:27:29.874Z,47.00
2019-03-16T11:29:58.576Z,48.10
2019-03-16T11:32:27.271Z,48.50
2019-03-16T11:37:24.192Z,49.60
2019-03-16T11:39:52.816Z,49.90
2019-03-16T11:42:21.454Z,47.90
2019-03-16T11:44:50.271Z,48.10
2019-03-16T11:47:18.917Z,48.50
2019-03-16T11:49:47.581Z,48.00
2019-03-16T11:52:16.805Z,47.10
2019-03-16T11:57:13.809Z,46.60
2019-03-16T11:59:42.452Z,47.90
2019-03-16T12:02:11.087Z,47.40
2019-03-16T12:04:39.742Z,47.30
2019-03-16T12:07:08.406Z,47.50
2019-03-16T12:09:37.126Z,47.00
2019-03-16T12:12:05.810Z,47.40
2019-03-16T12:14:34.453Z,46.70
2019-03-16T12:19:31.677Z,46.70
2019-03-16T12:22:00.329Z,46.90
2019-03-16T12:24:28.965Z,46.40
2019-03-16T12:26:57.613Z,46.30
2019-03-16T12:29:33.924Z,46.60
2019-03-16T12:31:56.755Z,46.80
2019-03-16T12:34:25.499Z,46.50
2019-03-16T12:36:54.155Z,45.60
2019-03-16T12:41:51.054Z,46.00
2019-03-16T12:44:20.025Z,47.00
2019-03-16T12:46:48.666Z,46.40
2019-03-16T12:49:17.304Z,45.60
2019-03-16T12:51:46.015Z,46.10
2019-03-16T12:54:14.759Z,46.20
2019-03-16T12:56:43.834Z,45.40
2019-03-16T12:59:12.597Z,45.40
2019-03-16T13:04:10.725Z,45.90
2019-03-16T13:06:39.376Z,46.40
2019-03-16T13:09:08.693Z,47.20
2019-03-16T13:11:37.488Z,45.50
2019-03-16T13:14:06.233Z,45.90
2019-03-16T13:16:37.140Z,45.60
2019-03-16T13:19:05.333Z,45.10
2019-03-16T13:24:02.234Z,45.50
2019-03-16T13:26:30.881Z,45.40
2019-03-16T13:28:59.578Z,45.90
2019-03-16T13:31:28.279Z,45.50
2019-03-16T13:33:56.937Z,45.00
2019-03-16T13:36:25.654Z,45.60
2019-03-16T13:38:54.301Z,46.10
2019-03-16T13:41:22.987Z,45.50
2019-03-16T13:46:19.986Z,44.30
2019-03-16T13:48:48.650Z,45.30
2019-03-16T13:51:17.362Z,43.70
2019-03-16T13:53:46.042Z,43.50
2019-03-16T13:56:14.687Z,43.50
2019-03-16T13:58:43.598Z,43.60
2019-03-16T14:01:12.340Z,41.60
2019-03-16T14:06:09.513Z,40.20
2019-03-16T14:08:38.251Z,40.40
2019-03-16T14:11:06.904Z,40.90
2019-03-16T14:13:35.606Z,39.60
2019-03-16T14:16:04.247Z,39.00
2019-03-16T14:18:32.982Z,38.20
2019-03-16T14:21:01.662Z,38.30
2019-03-16T14:23:30.354Z,37.90
2019-03-16T14:28:27.626Z,35.80
2019-03-16T14:30:56.526Z,32.50
2019-03-16T14:33:25.176Z,31.70
2019-03-16T14:35:53.814Z,32.30
2019-03-16T14:38:22.460Z,31.60
2019-03-16T14:40:51.128Z,32.30
2019-03-16T14:43:21.677Z,32.40
2019-03-16T14:45:50.480Z,31.30
2019-03-16T14:50:47.918Z,29.10
2019-03-16T14:53:16.634Z,29.60
2019-03-16T14:55:45.333Z,29.10
2019-03-16T14:58:14.401Z,29.30
2019-03-16T15:00:43.085Z,27.50
2019-03-16T15:03:11.762Z,26.30
2019-03-16T15:05:40.429Z,25.80
2019-03-16T15:10:37.695Z,26.00
2019-03-16T15:13:06.334Z,26.80
2019-03-16T15:15:35.061Z,26.80
2019-03-16T15:18:03.775Z,26.00
2019-03-16T15:20:32.427Z,26.30
2019-03-16T15:23:01.152Z,25.80
2019-03-16T15:25:29.849Z,26.40
2019-03-16T15:27:58.751Z,26.10
2019-03-16T15:32:56.102Z,25.80
2019-03-16T15:35:24.801Z,26.00
2019-03-16T15:37:53.429Z,26.00
2019-03-16T15:40:22.075Z,24.20
2019-03-16T15:42:50.956Z,23.30
2019-03-16T15:45:19.638Z,23.50
2019-03-16T15:47:48.322Z,22.00
2019-03-16T15:50:17.009Z,22.20
2019-03-16T15:55:14.386Z,23.00
2019-03-16T15:57:43.167Z,24.10
2019-03-16T16:00:12.697Z,24.40
2019-03-16T16:02:41.335Z,24.50
2019-03-16T16:05:09.989Z,24.60
2019-03-16T16:07:38.777Z,24.20
2019-03-16T16:10:08.070Z,34.80
2019-03-16T16:12:36.791Z,24.60
2019-03-16T16:15:06.133Z,24.00
2019-03-16T16:17:34.818Z,23.50
2019-03-16T16:20:03.515Z,23.50
2019-03-16T16:22:32.148Z,23.40
2019-03-16T16:25:00.797Z,22.70
2019-03-16T16:27:29.478Z,23.20
2019-03-16T16:29:58.370Z,23.50
2019-03-16T16:32:27.049Z,22.80
2019-03-16T16:37:23.996Z,22.70
2019-03-16T16:39:52.655Z,23.40
2019-03-16T16:42:21.300Z,23.40
2019-03-16T16:44:50.036Z,23.90
2019-03-16T16:47:18.706Z,24.20
2019-03-16T16:49:47.358Z,24.50
2019-03-16T16:52:16.000Z,24.80
2019-03-16T16:54:44.639Z,25.00
2019-03-16T16:59:41.664Z,24.80
2019-03-16T17:02:10.351Z,25.70
2019-03-16T17:04:39.003Z,26.10
2019-03-16T17:07:07.952Z,26.50
2019-03-16T17:09:37.181Z,26.40
2019-03-16T17:12:05.877Z,27.40
2019-03-16T17:14:34.541Z,27.20
2019-03-16T17:17:03.440Z,27.60
2019-03-16T17:22:00.455Z,28.00
2019-03-16T17:24:29.105Z,28.40
2019-03-16T17:26:57.892Z,28.80
2019-03-16T17:29:26.587Z,28.90
2019-03-16T17:31:55.300Z,29.40
2019-03-16T17:34:24.077Z,30.30
2019-03-16T17:36:52.727Z,31.90
2019-03-16T17:39:21.384Z,33.10
2019-03-16T17:41:50.019Z,33.70
2019-03-16T17:44:18.675Z,33.80
2019-03-16T17:46:47.297Z,35.10
2019-03-16T17:49:15.939Z,36.70
2019-03-16T17:51:44.572Z,37.60
2019-03-16T17:54:13.214Z,38.70
2019-03-16T17:56:41.986Z,39.20
2019-03-16T17:59:10.724Z,38.70
2019-03-16T18:04:07.654Z,40.60
2019-03-16T18:06:36.300Z,41.00
2019-03-16T18:09:07.108Z,39.70
2019-03-16T18:11:35.753Z,45.00
2019-03-16T18:14:04.524Z,40.90
2019-03-16T18:16:33.325Z,40.30
2019-03-16T18:19:01.988Z,40.80
2019-03-16T18:21:30.666Z,40.00
2019-03-16T18:26:27.985Z,40.40
2019-03-16T18:28:56.700Z,40.70
2019-03-16T18:31:25.458Z,41.80
2019-03-16T18:33:54.223Z,42.10
2019-03-16T18:36:23.021Z,41.90
2019-03-16T18:38:51.665Z,42.90
2019-03-16T18:41:20.396Z,43.50
2019-03-16T18:43:49.099Z,44.30
2019-03-16T18:48:46.150Z,43.10
2019-03-16T18:51:15.261Z,44.40
2019-03-16T18:53:45.568Z,44.70
2019-03-16T18:56:14.768Z,46.20
2019-03-16T18:58:43.502Z,46.30
2019-03-16T19:01:12.559Z,46.80
2019-03-16T19:03:41.234Z,46.60
2019-03-16T19:11:06.607Z,48.20
2019-03-16T19:13:35.232Z,49.50
2019-03-16T19:16:04.989Z,49.80
2019-03-16T19:18:33.728Z,49.50
2019-03-16T19:21:02.442Z,50.00
2019-03-16T19:23:31.140Z,48.50
2019-03-16T19:25:59.804Z,48.30
2019-03-16T19:30:57.838Z,48.70
2019-03-16T19:33:26.481Z,50.00
2019-03-16T19:35:55.194Z,50.70
2019-03-16T19:38:23.927Z,50.40
2019-03-16T19:40:52.653Z,50.60
2019-03-16T19:43:22.448Z,50.90
2019-03-16T19:45:51.145Z,51.30
2019-03-16T19:48:19.926Z,50.90
2019-03-16T19:53:16.964Z,50.90
2019-03-16T19:55:45.696Z,51.50
2019-03-16T19:58:14.365Z,52.00
2019-03-16T20:00:43.327Z,52.30
2019-03-16T20:03:12.038Z,53.60
2019-03-16T20:05:40.737Z,54.00
2019-03-16T20:08:09.440Z,54.30
2019-03-16T20:10:38.210Z,55.50
2019-03-16T20:15:35.264Z,54.60
2019-03-16T20:18:04.351Z,55.20
2019-03-16T20:20:33.158Z,55.60
2019-03-16T20:23:01.799Z,55.90
2019-03-16T20:25:30.537Z,56.10
2019-03-16T20:27:59.773Z,56.50
2019-03-16T20:30:28.429Z,56.60
2019-03-16T20:33:03.944Z,56.30
2019-03-16T20:37:55.796Z,56.70
2019-03-16T20:40:24.435Z,57.60
2019-03-16T20:42:53.145Z,57.60
2019-03-16T20:45:22.012Z,57.70
2019-03-16T20:47:50.861Z,57.30
2019-03-16T20:50:19.555Z,57.60
2019-03-16T20:52:48.192Z,57.70
2019-03-16T20:57:45.585Z,57.80
2019-03-16T21:00:14.282Z,58.40
2019-03-16T21:02:42.984Z,58.80
2019-03-16T21:05:12.034Z,59.00
2019-03-16T21:07:40.727Z,59.10
2019-03-16T21:10:09.391Z,59.20
2019-03-16T21:12:38.489Z,59.40
2019-03-16T21:15:08.086Z,59.20
2019-03-16T21:20:06.100Z,58.70
2019-03-16T21:22:38.678Z,59.70
2019-03-16T21:25:05.353Z,59.80
2019-03-16T21:27:34.016Z,60.10
2019-03-16T21:30:02.709Z,60.70
2019-03-16T21:32:31.409Z,61.20
2019-03-16T21:35:00.069Z,61.30
2019-03-16T21:37:28.776Z,60.50
2019-03-16T21:42:25.691Z,61.60
2019-03-16T21:44:54.334Z,63.10
2019-03-16T21:47:23.004Z,64.10
2019-03-16T21:49:51.667Z,63.80
2019-03-16T21:52:20.328Z,63.20
2019-03-16T21:54:48.975Z,63.30
2019-03-16T21:57:17.684Z,64.20
2019-03-16T21:59:46.621Z,64.10
2019-03-16T22:04:43.678Z,63.40
2019-03-16T22:07:12.377Z,64.80
2019-03-16T22:09:41.047Z,64.70
2019-03-16T22:12:09.799Z,65.20
2019-03-16T22:14:38.516Z,65.00
2019-03-16T22:17:07.241Z,66.00
2019-03-16T22:19:35.903Z,66.20
2019-03-16T22:22:04.579Z,64.90
2019-03-16T22:27:01.676Z,65.40
2019-03-16T22:29:30.329Z,66.50
2019-03-16T22:31:59.049Z,66.50
2019-03-16T22:34:27.693Z,66.50
2019-03-16T22:36:56.395Z,66.80
2019-03-16T22:39:25.075Z,66.60
2019-03-16T22:41:53.777Z,66.60
2019-03-16T22:44:22.543Z,65.90
2019-03-16T22:49:19.608Z,65.60
2019-03-16T22:51:48.253Z,66.50
2019-03-16T22:54:19.067Z,66.90
2019-03-16T22:56:47.407Z,66.90
2019-03-16T22:59:16.103Z,67.10
2019-03-16T23:01:44.775Z,66.80
2019-03-16T23:04:13.842Z,66.80
2019-03-16T23:06:42.517Z,67.00
2019-03-16T23:11:39.519Z,66.70
2019-03-16T23:14:08.245Z,68.40
2019-03-16T23:16:36.902Z,68.80
2019-03-16T23:19:05.563Z,68.90
2019-03-16T23:21:34.356Z,69.40
2019-03-16T23:24:03.080Z,69.30
2019-03-16T23:26:38.351Z,68.40
2019-03-16T23:31:30.905Z,68.60
2019-03-16T23:33:59.657Z,69.50
2019-03-16T23:36:28.330Z,68.20
2019-03-16T23:38:57.009Z,68.40
2019-03-16T23:41:25.656Z,68.40
2019-03-16T23:43:54.759Z,68.70
2019-03-16T23:46:23.479Z,68.90
2019-03-16T23:48:52.256Z,68.50
2019-03-16T23:53:49.441Z,69.10
2019-03-16T23:56:18.167Z,70.90
2019-03-16T23:58:47.389Z,70.30
